Time;durP1;ratioP1;P1;durP2;ratioP2;P2;SDS_P1;SDS_P2;PMS_P1;PMS_P2;Temp;Humidity;BMP_temperature;BMP_pressure;BME280_temperature;BME280_humidity;BME280_pressure;Samples;Min_cycle;Max_cycle;Signal;HPM_P1;HPM_P2
2022/11/17 00:02:06;;;;;;;38.90;18.40;;;13.20;93.50;;;;;;5067424;28;20240;-80
2022/11/17 00:04:34;;;;;;;38.70;17.83;;;13.20;93.50;;;;;;5058765;28;20206;-79
2022/11/17 00:07:03;;;;;;;41.83;18.03;;;13.20;93.50;;;;;;5064047;28;20315;-79
2022/11/17 00:09:33;;;;;;;42.33;18.17;;;13.20;93.50;;;;;;5067853;28;20256;-80
2022/11/17 00:14:51;;;;;;;37.60;17.87;;;13.20;93.40;;;;;;5063277;28;20194;-79
2022/11/17 00:17:19;;;;;;;38.70;18.63;;;13.20;93.40;;;;;;5065726;28;20209;-79
2022/11/17 00:22:33;;;;;;;38.47;18.33;;;13.20;93.40;;;;;;5061820;28;20568;-78
2022/11/17 00:25:02;;;;;;;39.90;17.40;;;13.20;93.30;;;;;;5065553;28;20650;-79
2022/11/17 00:27:30;;;;;;;41.67;19.03;;;13.20;93.50;;;;;;5066749;28;20662;-79
2022/11/17 00:30:00;;;;;;;42.70;19.67;;;13.20;93.30;;;;;;5061511;28;20198;-80
2022/11/17 00:35:14;;;;;;;37.20;18.50;;;13.20;93.30;;;;;;5063639;28;21034;-80
2022/11/17 00:38:14;;;;;;;41.70;18.97;;;13.20;93.30;;;;;;5064985;28;20258;-81
2022/11/17 00:40:31;;;;;;;38.63;18.90;;;13.20;93.30;;;;;;5062876;28;20249;-80
2022/11/17 00:42:59;;;;;;;43.13;19.63;;;13.20;93.30;;;;;;5061482;28;20187;-79
2022/11/17 00:45:29;;;;;;;47.30;18.97;;;13.20;93.30;;;;;;5061496;28;20694;-80
2022/11/17 00:47:57;;;;;;;39.47;18.60;;;13.20;93.30;;;;;;5067028;28;20827;-81
2022/11/17 00:50:25;;;;;;;46.87;20.00;;;13.20;93.30;;;;;;5066215;28;20224;-80
2022/11/17 00:52:54;;;;;;;43.30;19.47;;;13.20;93.30;;;;;;5061113;28;20253;-80
2022/11/17 00:55:22;;;;;;;49.17;19.40;;;13.20;93.20;;;;;;5067004;28;20214;-81
2022/11/17 00:57:50;;;;;;;36.93;18.67;;;13.20;93.20;;;;;;5061056;28;20289;-80
2022/11/17 01:00:20;;;;;;;40.67;20.17;;;13.20;93.20;;;;;;5064130;28;20197;-79
2022/11/17 01:02:49;;;;;;;40.97;20.20;;;13.20;93.20;;;;;;5059955;28;20187;-79
2022/11/17 01:05:18;;;;;;;41.13;19.37;;;13.20;93.20;;;;;;5063450;28;20258;-80
2022/11/17 01:07:46;;;;;;;41.80;19.73;;;13.20;93.30;;;;;;5064593;28;20249;-79
2022/11/17 01:10:15;;;;;;;39.63;18.73;;;13.20;93.30;;;;;;5064371;28;20248;-80
2022/11/17 01:12:43;;;;;;;41.23;19.37;;;13.20;93.30;;;;;;5060010;28;20242;-80
2022/11/17 01:15:11;;;;;;;38.60;18.87;;;13.20;93.20;;;;;;5066190;28;20275;-77
2022/11/17 01:17:40;;;;;;;41.87;18.90;;;13.20;93.20;;;;;;5064254;28;20202;-79
2022/11/17 01:20:10;;;;;;;42.53;19.13;;;13.20;93.20;;;;;;5066253;28;20698;-79
2022/11/17 01:22:38;;;;;;;44.77;20.30;;;13.20;93.30;;;;;;5065515;28;20233;-80
2022/11/17 01:25:07;;;;;;;38.83;18.17;;;13.20;93.20;;;;;;5068723;28;20194;-80
2022/11/17 01:27:36;;;;;;;40.77;19.50;;;13.20;93.20;;;;;;5062614;28;20245;-79
2022/11/17 01:30:06;;;;;;;43.03;20.80;;;13.20;93.20;;;;;;5063687;28;20637;-80
2022/11/17 01:32:35;;;;;;;40.20;18.53;;;13.30;93.30;;;;;;5066018;28;20245;-80
2022/11/17 01:35:03;;;;;;;37.10;19.23;;;13.30;93.30;;;;;;5064256;28;20247;-80
2022/11/17 01:37:33;;;;;;;42.33;19.87;;;13.30;93.30;;;;;;5065970;28;20698;-80
2022/11/17 01:40:01;;;;;;;44.07;19.67;;;13.30;93.30;;;;;;5060974;28;20229;-81
2022/11/17 01:42:30;;;;;;;42.67;19.23;;;13.30;93.30;;;;;;5060614;28;20550;-80
2022/11/17 01:45:01;;;;;;;41.23;19.00;;;13.30;93.30;;;;;;5065338;28;20190;-81
2022/11/17 01:47:39;;;;;;;43.17;19.30;;;13.40;93.30;;;;;;5063563;28;20319;-80
2022/11/17 01:50:18;;;;;;;39.43;18.90;;;13.40;93.30;;;;;;5059433;28;20728;-80
2022/11/17 01:52:50;;;;;;;42.03;19.77;;;13.40;93.30;;;;;;5059697;28;20211;-79
2022/11/17 01:55:20;;;;;;;41.43;19.00;;;13.40;93.60;;;;;;5068096;28;20218;-81
2022/11/17 01:57:52;;;;;;;42.20;19.87;;;13.40;93.20;;;;;;5067754;28;20965;-78
2022/11/17 02:00:21;;;;;;;38.83;19.07;;;13.40;93.20;;;;;;5063324;28;20198;-78
2022/11/17 02:02:50;;;;;;;39.07;19.23;;;13.40;93.20;;;;;;5059993;28;20195;-79
2022/11/17 02:05:33;;;;;;;39.37;18.60;;;13.40;93.20;;;;;;5066493;28;20199;-81
2022/11/17 02:08:06;;;;;;;42.53;19.17;;;13.40;93.20;;;;;;5062761;28;20205;-77
2022/11/17 02:10:35;;;;;;;40.83;18.83;;;13.40;93.20;;;;;;5066311;28;20191;-79
2022/11/17 02:13:05;;;;;;;47.20;20.43;;;13.40;93.20;;;;;;5062914;28;20222;-79
2022/11/17 02:15:33;;;;;;;42.33;19.27;;;13.50;93.20;;;;;;5066347;28;20296;-80
2022/11/17 02:18:02;;;;;;;42.57;18.80;;;13.50;93.20;;;;;;5069762;28;20199;-80
2022/11/17 02:20:50;;;;;;;40.57;19.83;;;13.50;93.20;;;;;;5067349;28;20214;-79
2022/11/17 02:24:02;;;;;;;41.57;20.20;;;13.50;93.20;;;;;;5063684;28;20686;-80
2022/11/17 02:26:54;;;;;;;37.30;20.50;;;13.50;93.20;;;;;;5067491;28;20224;-79
2022/11/17 02:29:30;;;;;;;46.07;20.13;;;13.50;93.10;;;;;;5063118;28;20198;-80
2022/11/17 02:32:05;;;;;;;37.93;18.97;;;13.50;93.10;;;;;;5062694;28;20226;-80
2022/11/17 02:34:43;;;;;;;38.60;18.67;;;13.50;93.20;;;;;;5061044;28;20252;-78
2022/11/17 02:37:20;;;;;;;43.00;18.53;;;13.50;93.10;;;;;;5063156;28;20261;-80
2022/11/17 02:39:54;;;;;;;41.37;19.67;;;13.50;93.10;;;;;;5065580;28;20198;-81
2022/11/17 02:45:20;;;;;;;37.33;18.70;;;13.50;93.20;;;;;;5059918;28;20271;-80
2022/11/17 02:47:53;;;;;;;43.23;18.90;;;13.50;93.10;;;;;;5062855;28;20543;-80
2022/11/17 02:50:25;;;;;;;43.80;20.40;;;13.50;93.10;;;;;;5068620;28;20273;-80
2022/11/17 02:52:56;;;;;;;44.73;20.30;;;13.50;93.10;;;;;;5069515;28;20847;-81
2022/11/17 02:55:24;;;;;;;43.60;20.40;;;13.50;93.10;;;;;;5064420;28;20199;-80
2022/11/17 02:57:52;;;;;;;38.80;18.50;;;13.50;93.10;;;;;;5066730;28;20198;-80
2022/11/17 03:00:22;;;;;;;40.77;17.97;;;13.60;93.10;;;;;;5064380;28;20253;-80
2022/11/17 03:03:10;;;;;;;41.57;18.97;;;13.50;93.10;;;;;;5064534;28;20190;-80
2022/11/17 03:05:48;;;;;;;44.33;19.67;;;13.60;93.10;;;;;;5070785;28;20628;-80
2022/11/17 03:08:29;;;;;;;43.77;20.33;;;13.50;93.10;;;;;;5063726;28;20235;-79
2022/11/17 03:11:02;;;;;;;46.13;19.77;;;13.50;93.10;;;;;;5063958;28;20256;-81
2022/11/17 03:13:40;;;;;;;43.40;20.07;;;13.50;93.10;;;;;;5067461;28;20242;-81
2022/11/17 03:16:18;;;;;;;39.23;19.43;;;13.50;93.10;;;;;;5063229;28;20199;-80
2022/11/17 03:19:00;;;;;;;34.90;17.87;;;13.50;93.10;;;;;;5067731;28;20248;-80
2022/11/17 03:21:32;;;;;;;41.47;20.03;;;13.40;93.10;;;;;;5067003;28;20187;-80
2022/11/17 03:24:05;;;;;;;39.37;19.27;;;13.50;93.10;;;;;;5071099;28;20194;-81
2022/11/17 03:26:36;;;;;;;44.27;20.00;;;13.40;93.00;;;;;;5067654;28;20256;-80
2022/11/17 03:29:09;;;;;;;38.20;19.13;;;13.40;93.00;;;;;;5065665;28;20202;-79
2022/11/17 03:31:41;;;;;;;40.30;19.00;;;13.40;93.00;;;;;;5067766;28;20222;-81
2022/11/17 03:34:14;;;;;;;42.93;20.10;;;13.40;93.00;;;;;;5068208;28;20206;-81
2022/11/17 03:36:52;;;;;;;40.80;20.07;;;13.40;93.10;;;;;;5061150;28;20750;-80
2022/11/17 03:39:23;;;;;;;38.47;18.93;;;13.40;93.10;;;;;;5066760;28;20283;-81
2022/11/17 03:41:55;;;;;;;40.83;20.03;;;13.40;93.10;;;;;;5066864;28;20190;-80
2022/11/17 03:44:26;;;;;;;39.97;18.60;;;13.30;93.00;;;;;;5064702;28;20186;-81
2022/11/17 03:46:59;;;;;;;40.03;19.40;;;13.40;93.10;;;;;;5063684;28;20230;-83
2022/11/17 03:49:35;;;;;;;38.37;17.80;;;13.40;93.10;;;;;;5065863;28;20248;-80
2022/11/17 03:52:04;;;;;;;35.77;17.83;;;13.40;93.10;;;;;;5063824;28;20716;-81
2022/11/17 03:54:33;;;;;;;39.07;18.07;;;13.40;93.10;;;;;;5065846;28;20690;-81
2022/11/17 03:57:07;;;;;;;41.33;19.50;;;13.40;93.10;;;;;;5069243;28;20282;-80
2022/11/17 03:59:42;;;;;;;39.83;19.33;;;13.40;93.10;;;;;;5067878;28;20285;-81
2022/11/17 04:02:18;;;;;;;38.33;18.67;;;13.50;93.10;;;;;;5061312;28;20248;-81
2022/11/17 04:07:33;;;;;;;43.77;18.83;;;13.50;93.10;;;;;;5066260;28;20609;-81
2022/11/17 04:10:01;;;;;;;41.60;19.23;;;13.50;93.10;;;;;;5058969;28;20294;-81
2022/11/17 04:18:16;;;;;;;41.00;18.93;;;13.50;93.00;;;;;;5041031;28;20215;-81
2022/11/17 04:20:44;;;;;;;42.23;20.07;;;13.60;93.00;;;;;;5034615;28;20199;-81
2022/11/17 04:23:14;;;;;;;42.43;19.83;;;13.60;93.00;;;;;;5061879;28;20217;-80
2022/11/17 04:28:38;;;;;;;43.90;19.80;;;13.50;93.00;;;;;;5065912;28;20236;-81
2022/11/17 04:31:09;;;;;;;39.67;18.77;;;13.50;93.00;;;;;;5058159;28;20209;-80
2022/11/17 04:33:40;;;;;;;38.27;18.90;;;13.60;93.00;;;;;;5067263;28;20666;-82
2022/11/17 04:36:09;;;;;;;40.80;19.90;;;13.60;93.00;;;;;;5066461;28;20230;-81
2022/11/17 04:38:40;;;;;;;38.07;17.83;;;13.60;93.00;;;;;;5068018;28;20679;-81
2022/11/17 04:43:56;;;;;;;41.93;19.30;;;13.60;93.00;;;;;;5063627;28;20183;-78
2022/11/17 04:46:25;;;;;;;39.03;18.87;;;13.60;93.00;;;;;;5061912;28;20613;-80
2022/11/17 04:48:56;;;;;;;42.43;19.30;;;13.60;93.00;;;;;;5063679;28;20244;-82
2022/11/17 04:51:25;;;;;;;37.40;19.10;;;13.60;93.00;;;;;;5066501;28;20218;-80
2022/11/17 04:53:54;;;;;;;37.50;18.60;;;13.60;93.00;;;;;;5065826;28;20275;-80
2022/11/17 04:56:23;;;;;;;41.37;19.73;;;13.60;92.90;;;;;;5063510;28;20217;-81
2022/11/17 04:58:52;;;;;;;39.20;18.37;;;13.60;93.00;;;;;;5062292;28;20237;-81
2022/11/17 05:01:21;;;;;;;38.50;19.47;;;13.60;93.00;;;;;;5058154;28;20223;-80
2022/11/17 05:03:51;;;;;;;39.10;19.23;;;13.60;93.00;;;;;;5063146;28;20256;-81
2022/11/17 05:06:23;;;;;;;38.03;19.80;;;13.60;93.00;;;;;;5065395;28;20715;-80
2022/11/17 05:08:54;;;;;;;42.37;19.73;;;13.60;93.00;;;;;;5061514;28;20190;-80
2022/11/17 05:14:09;;;;;;;52.53;24.67;;;13.60;93.00;;;;;;5061153;28;20222;-80
2022/11/17 05:19:26;;;;;;;43.73;22.90;;;13.70;93.00;;;;;;5058361;28;20643;-81
2022/11/17 05:21:56;;;;;;;52.77;22.90;;;13.70;93.00;;;;;;5063937;28;20339;-80
2022/11/17 05:24:23;;;;;;;48.13;21.40;;;13.70;93.00;;;;;;5058864;28;20387;-80
2022/11/17 05:26:51;;;;;;;43.87;20.23;;;13.70;93.00;;;;;;5061695;28;20203;-81
2022/11/17 05:29:21;;;;;;;47.27;21.90;;;13.70;93.00;;;;;;5060012;28;20281;-80
2022/11/17 05:31:50;;;;;;;38.00;20.30;;;13.70;93.00;;;;;;5066675;28;20201;-80
2022/11/17 05:34:19;;;;;;;44.17;21.10;;;13.70;93.00;;;;;;5067679;28;20651;-80
2022/11/17 05:36:47;;;;;;;45.20;21.33;;;13.80;93.00;;;;;;5068279;28;20416;-80
2022/11/17 05:39:16;;;;;;;48.97;22.83;;;13.80;93.00;;;;;;5068608;28;20202;-80
2022/11/17 05:41:45;;;;;;;41.07;20.40;;;13.80;93.00;;;;;;5071463;28;20226;-81
2022/11/17 05:44:13;;;;;;;38.83;20.27;;;13.80;93.00;;;;;;5067160;28;20194;-81
2022/11/17 05:46:41;;;;;;;41.90;20.50;;;13.80;93.00;;;;;;5068093;28;20205;-80
2022/11/17 05:49:09;;;;;;;46.93;21.90;;;13.90;93.00;;;;;;5067666;28;20210;-81
2022/11/17 05:51:38;;;;;;;48.80;20.67;;;13.90;93.10;;;;;;5066108;28;20210;-81
2022/11/17 05:54:06;;;;;;;40.97;21.47;;;13.90;93.10;;;;;;5057684;28;20229;-79
2022/11/17 05:56:39;;;;;;;42.40;21.37;;;14.00;93.10;;;;;;5068283;28;20198;-80
2022/11/17 05:59:16;;;;;;;45.13;20.90;;;14.00;93.20;;;;;;5068625;28;20202;-80
2022/11/17 06:01:53;;;;;;;43.47;19.63;;;14.00;93.10;;;;;;5064830;28;20194;-80
2022/11/17 06:04:21;;;;;;;44.23;19.60;;;14.10;93.20;;;;;;5062636;28;20299;-79
2022/11/17 06:06:50;;;;;;;45.63;20.13;;;14.10;93.20;;;;;;5065765;28;20601;-81
2022/11/17 06:09:19;;;;;;;41.20;19.90;;;14.20;93.20;;;;;;5064585;28;20195;-81
2022/11/17 06:11:49;;;;;;;42.63;19.70;;;14.20;93.20;;;;;;5061997;28;20198;-80
2022/11/17 06:14:19;;;;;;;41.33;21.27;;;14.30;93.20;;;;;;5068220;28;20199;-81
2022/11/17 06:16:51;;;;;;;40.70;20.90;;;14.30;93.20;;;;;;5058928;28;20207;-81
2022/11/17 06:19:24;;;;;;;45.70;24.60;;;14.40;93.20;;;;;;5065353;28;20504;-80
2022/11/17 06:21:53;;;;;;;48.27;22.37;;;14.50;93.10;;;;;;5063845;28;20829;-81
2022/11/17 06:24:41;;;;;;;39.53;21.80;;;14.50;93.00;;;;;;5068682;28;20204;-80
2022/11/17 06:27:12;;;;;;;40.00;21.67;;;14.50;93.00;;;;;;5070022;28;20248;-81
2022/11/17 06:29:41;;;;;;;40.30;20.93;;;14.50;92.90;;;;;;5070143;28;20195;-80
2022/11/17 06:32:13;;;;;;;45.85;23.75;;;14.50;92.90;;;;;;5066817;28;20850;-81
2022/11/17 06:34:42;;;;;;;47.00;22.07;;;14.60;92.90;;;;;;5066595;28;20686;-80
2022/11/17 06:37:11;;;;;;;42.63;21.00;;;14.60;92.80;;;;;;5064499;28;20279;-80
2022/11/17 06:39:39;;;;;;;46.20;21.33;;;14.60;92.80;;;;;;5063278;28;20207;-81
2022/11/17 06:42:07;;;;;;;38.37;20.50;;;14.60;92.70;;;;;;5058256;28;20211;-81
2022/11/17 06:44:38;;;;;;;40.73;21.40;;;14.60;92.60;;;;;;5064589;28;20213;-80
2022/11/17 06:47:06;;;;;;;46.47;20.43;;;14.60;92.60;;;;;;5064189;28;20285;-80
2022/11/17 06:49:34;;;;;;;42.57;21.67;;;14.60;92.60;;;;;;5069830;28;20202;-80
2022/11/17 06:52:03;;;;;;;40.40;20.07;;;14.60;92.60;;;;;;5065178;28;20195;-79
2022/11/17 06:54:31;;;;;;;38.30;19.90;;;14.60;92.60;;;;;;5068961;28;20206;-80
2022/11/17 06:57:02;;;;;;;45.47;23.35;;;14.60;92.60;;;;;;5067731;28;20450;-80
2022/11/17 06:59:30;;;;;;;44.57;21.27;;;14.60;92.70;;;;;;5069599;28;20606;-80
2022/11/17 07:02:00;;;;;;;41.67;21.13;;;14.60;92.70;;;;;;5066861;28;20203;-79
2022/11/17 07:04:28;;;;;;;48.60;23.43;;;14.60;92.70;;;;;;5064643;28;20190;-78
2022/11/17 07:06:56;;;;;;;46.50;23.43;;;14.60;92.70;;;;;;5067388;28;20195;-79
2022/11/17 07:09:25;;;;;;;53.90;25.07;;;14.70;92.80;;;;;;5069932;28;20206;-80
2022/11/17 07:11:53;;;;;;;59.77;27.33;;;14.70;92.70;;;;;;5065822;28;20199;-79
2022/11/17 07:14:22;;;;;;;64.50;27.53;;;14.70;92.70;;;;;;5065354;28;20234;-80
2022/11/17 07:16:50;;;;;;;55.27;25.30;;;14.70;92.70;;;;;;5062683;28;20214;-80
2022/11/17 07:19:20;;;;;;;49.30;24.33;;;14.70;92.70;;;;;;5067362;28;20247;-80
2022/11/17 07:21:48;;;;;;;50.50;24.73;;;14.80;92.70;;;;;;5068623;28;20206;-79
2022/11/17 07:24:17;;;;;;;45.70;23.23;;;14.80;92.70;;;;;;5065192;28;20191;-79
2022/11/17 07:26:45;;;;;;;45.33;22.00;;;14.80;92.70;;;;;;5066332;28;20293;-80
2022/11/17 07:29:13;;;;;;;44.23;20.87;;;14.80;92.70;;;;;;5064285;28;20596;-79
2022/11/17 07:31:42;;;;;;;40.97;21.23;;;14.80;92.70;;;;;;5067270;28;20202;-77
2022/11/17 07:34:10;;;;;;;49.77;22.23;;;14.90;92.70;;;;;;5067684;28;20618;-79
2022/11/17 07:36:40;;;;;;;47.53;24.85;;;14.90;92.70;;;;;;5064695;28;20451;-78
2022/11/17 07:39:09;;;;;;;44.50;22.33;;;15.00;92.90;;;;;;5059810;28;20208;-78
2022/11/17 07:41:37;;;;;;;44.40;22.50;;;15.00;92.90;;;;;;5064747;28;20206;-81
2022/11/17 07:44:06;;;;;;;47.20;22.63;;;15.00;93.20;;;;;;5067050;28;20199;-80
2022/11/17 07:46:34;;;;;;;44.33;22.70;;;15.10;92.90;;;;;;5065450;28;20199;-78
2022/11/17 07:49:03;;;;;;;44.40;21.33;;;15.10;92.80;;;;;;5060190;28;20209;-79
2022/11/17 07:51:31;;;;;;;52.33;22.37;;;15.20;92.80;;;;;;5062673;28;20647;-79
2022/11/17 07:54:01;;;;;;;45.33;21.97;;;15.20;92.80;;;;;;5065471;28;20214;-79
2022/11/17 07:56:29;;;;;;;45.07;21.83;;;15.20;92.80;;;;;;5061875;28;20218;-80
2022/11/17 07:58:58;;;;;;;45.13;22.30;;;15.20;92.70;;;;;;5065654;28;20198;-79
2022/11/17 08:01:26;;;;;;;46.10;22.73;;;15.30;92.70;;;;;;5069278;28;20194;-78
2022/11/17 08:03:58;;;;;;;48.20;22.53;;;15.30;92.70;;;;;;5068506;28;20236;-79
2022/11/17 08:06:26;;;;;;;43.07;21.00;;;15.30;92.70;;;;;;5069059;28;20190;-79
2022/11/17 08:08:55;;;;;;;41.40;20.10;;;15.40;92.70;;;;;;5065079;28;20194;-79
2022/11/17 08:11:25;;;;;;;49.30;22.50;;;15.40;92.80;;;;;;5064281;28;20546;-79
2022/11/17 08:13:53;;;;;;;44.43;23.07;;;15.40;92.70;;;;;;5061577;28;20206;-79
2022/11/17 08:16:21;;;;;;;49.07;22.83;;;15.40;92.60;;;;;;5066012;28;20228;-79
2022/11/17 08:18:50;;;;;;;43.50;20.63;;;15.40;92.50;;;;;;5066011;28;20213;-79
2022/11/17 08:21:20;;;;;;;44.73;21.63;;;15.40;92.60;;;;;;5066825;28;20202;-78
2022/11/17 08:23:51;;;;;;;39.67;19.00;;;15.50;92.60;;;;;;5067348;28;20202;-79
2022/11/17 08:26:20;;;;;;;32.63;16.50;;;15.40;92.50;;;;;;5067861;28;20193;-79
2022/11/17 08:28:50;;;;;;;27.07;15.60;;;15.40;92.40;;;;;;5069097;28;20658;-79
2022/11/17 08:31:25;;;;;;;38.60;17.07;;;15.40;92.20;;;;;;5068173;28;20288;-79
2022/11/17 08:33:54;;;;;;;31.10;16.40;;;15.40;92.30;;;;;;5064719;28;20201;-79
2022/11/17 08:36:22;;;;;;;30.27;15.27;;;15.40;92.30;;;;;;5063959;28;20237;-80
2022/11/17 08:38:51;;;;;;;32.63;16.83;;;15.50;92.20;;;;;;5064429;28;20198;-81
2022/11/17 08:41:20;;;;;;;36.23;16.03;;;15.40;92.20;;;;;;5064872;28;20556;-81
2022/11/17 08:43:50;;;;;;;33.77;15.87;;;15.40;92.20;;;;;;5062750;28;20198;-80
2022/11/17 08:46:18;;;;;;;30.43;15.63;;;15.50;92.20;;;;;;5062085;28;20717;-79
2022/11/17 08:48:47;;;;;;;26.07;15.10;;;15.50;92.10;;;;;;5067541;28;20221;-78
2022/11/17 08:51:22;;;;;;;37.33;15.90;;;15.50;92.10;;;;;;5067522;28;20220;-82
2022/11/17 08:53:51;;;;;;;33.10;15.23;;;15.50;92.00;;;;;;5065204;28;20255;-83
2022/11/17 08:56:19;;;;;;;35.85;18.10;;;15.50;91.90;;;;;;5065933;28;20452;-81
2022/11/17 08:58:48;;;;;;;32.83;16.67;;;15.50;92.00;;;;;;5061735;28;20226;-79
2022/11/17 09:01:17;;;;;;;37.43;17.70;;;15.40;92.00;;;;;;5040255;28;20209;-82
2022/11/17 09:03:47;;;;;;;32.80;16.07;;;15.40;92.00;;;;;;5059306;28;22191;-81
2022/11/17 09:06:16;;;;;;;30.90;16.20;;;15.40;92.00;;;;;;5060517;28;20571;-80
2022/11/17 09:08:45;;;;;;;36.90;17.73;;;15.40;92.00;;;;;;5063595;28;20642;-82
2022/11/17 09:11:15;;;;;;;35.87;18.27;;;15.40;92.00;;;;;;5063786;28;20206;-82
2022/11/17 09:13:45;;;;;;;38.87;19.63;;;15.40;92.10;;;;;;5063945;28;20256;-80
2022/11/17 09:16:15;;;;;;;38.23;17.73;;;15.40;92.20;;;;;;5064172;28;20325;-81
2022/11/17 09:18:45;;;;;;;43.93;18.10;;;15.40;92.20;;;;;;5061200;28;20206;-81
2022/11/17 09:21:15;;;;;;;36.77;17.93;;;15.40;92.30;;;;;;5059832;28;20688;-80
2022/11/17 09:23:44;;;;;;;34.93;18.93;;;15.40;92.30;;;;;;5063988;28;20194;-80
2022/11/17 09:26:13;;;;;;;36.67;17.13;;;15.40;92.50;;;;;;5071529;28;20191;-78
2022/11/17 09:28:42;;;;;;;36.73;18.30;;;15.40;92.80;;;;;;5063616;28;20203;-81
2022/11/17 09:31:13;;;;;;;36.60;17.90;;;15.40;92.50;;;;;;5056770;28;20215;-78
2022/11/17 09:33:41;;;;;;;32.17;16.40;;;15.30;92.50;;;;;;5061452;28;20190;-80
2022/11/17 09:36:13;;;;;;;29.57;15.37;;;15.40;92.50;;;;;;5060164;28;20709;-79
2022/11/17 09:38:41;;;;;;;30.70;15.03;;;15.30;92.40;;;;;;5061614;28;20256;-80
2022/11/17 09:41:20;;;;;;;33.37;16.17;;;15.30;92.50;;;;;;5059671;28;20203;-78
2022/11/17 09:43:53;;;;;;;28.03;14.97;;;15.20;92.60;;;;;;5062042;28;20198;-80
2022/11/17 09:46:27;;;;;;;26.30;14.13;;;15.30;92.80;;;;;;5065000;28;20213;-79
2022/11/17 09:49:05;;;;;;;25.00;13.43;;;15.20;92.90;;;;;;5061127;28;20195;-79
2022/11/17 09:51:38;;;;;;;28.00;15.20;;;15.30;93.10;;;;;;5061723;28;20199;-77
2022/11/17 09:54:14;;;;;;;28.87;13.80;;;15.30;93.40;;;;;;5063474;28;20241;-81
2022/11/17 09:56:43;;;;;;;25.87;13.03;;;15.30;93.50;;;;;;5068879;28;20206;-78
2022/11/17 09:59:14;;;;;;;26.07;13.47;;;15.30;93.50;;;;;;5063846;28;20190;-78
2022/11/17 10:01:42;;;;;;;20.93;12.60;;;15.30;93.70;;;;;;5059300;28;20206;-81
2022/11/17 10:04:13;;;;;;;29.00;13.97;;;15.20;93.80;;;;;;5063203;28;20289;-77
2022/11/17 10:06:48;;;;;;;22.87;12.23;;;15.20;93.90;;;;;;5065680;28;20197;-81
2022/11/17 10:09:21;;;;;;;23.10;12.63;;;15.20;93.90;;;;;;5061415;28;20293;-83
2022/11/17 10:12:01;;;;;;;26.90;11.93;;;15.20;94.10;;;;;;5063840;28;20205;-82
2022/11/17 10:14:30;;;;;;;22.50;12.43;;;15.20;94.20;;;;;;5066334;28;20436;-84
2022/11/17 10:16:59;;;;;;;19.93;11.30;;;15.20;94.40;;;;;;5067579;28;20730;-82
2022/11/17 10:19:29;;;;;;;26.17;11.90;;;15.20;94.40;;;;;;5066509;28;20701;-78
2022/11/17 10:22:17;;;;;;;24.93;12.13;;;15.30;94.50;;;;;;5069538;28;20194;-80
2022/11/17 10:24:50;;;;;;;27.97;12.53;;;15.30;94.60;;;;;;5062369;28;20300;-78
2022/11/17 10:27:23;;;;;;;25.43;12.43;;;15.40;94.50;;;;;;5062714;28;20197;-78
2022/11/17 10:29:59;;;;;;;21.30;11.10;;;15.50;94.60;;;;;;5067532;28;20717;-83
2022/11/17 10:32:29;;;;;;;22.93;12.37;;;15.50;94.80;;;;;;5068256;28;20194;-82
2022/11/17 10:35:13;;;;;;;19.03;11.27;;;15.50;94.80;;;;;;5067763;28;20190;-82
2022/11/17 10:37:51;;;;;;;24.20;12.13;;;15.50;95.00;;;;;;5063873;28;20637;-82
2022/11/17 10:40:21;;;;;;;18.80;11.13;;;15.60;95.10;;;;;;5070788;28;20765;-81
2022/11/17 10:43:20;;;;;;;20.83;10.90;;;15.60;95.20;;;;;;5069043;28;20190;-83
2022/11/17 10:45:53;;;;;;;18.07;10.00;;;15.60;95.30;;;;;;5064310;28;20225;-82
2022/11/17 10:48:28;;;;;;;21.97;10.90;;;15.60;95.30;;;;;;5064522;28;20186;-80
2022/11/17 10:54:02;;;;;;;19.40;10.27;;;15.50;95.40;;;;;;5060540;28;20203;-84
2022/11/17 10:56:32;;;;;;;16.77;10.00;;;15.50;95.40;;;;;;5069780;28;20194;-80
2022/11/17 10:59:12;;;;;;;17.93;10.43;;;15.60;95.40;;;;;;5064418;28;20196;-84
2022/11/17 11:01:42;;;;;;;19.13;9.87;;;15.50;95.40;;;;;;5070955;28;20604;-82
2022/11/17 11:04:33;;;;;;;21.30;10.40;;;15.60;95.30;;;;;;5067663;28;20233;-83
2022/11/17 11:07:11;;;;;;;17.57;10.87;;;15.60;95.30;;;;;;5058744;28;20191;-76
2022/11/17 11:09:47;;;;;;;21.40;10.67;;;15.70;95.30;;;;;;5061855;28;20230;-80
2022/11/17 11:12:20;;;;;;;22.03;11.60;;;15.70;95.20;;;;;;5057540;28;20583;-76
2022/11/17 11:14:53;;;;;;;21.90;10.70;;;15.70;95.30;;;;;;5070138;28;20244;-77
2022/11/17 11:17:22;;;;;;;21.20;10.33;;;15.70;95.10;;;;;;5062757;28;20572;-80
2022/11/17 11:19:52;;;;;;;26.83;11.27;;;15.70;95.00;;;;;;5061352;28;20260;-77
2022/11/17 11:22:28;;;;;;;23.07;12.10;;;15.80;95.00;;;;;;5065854;28;20195;-78
2022/11/17 11:25:09;;;;;;;25.73;12.10;;;15.80;95.00;;;;;;5065679;28;20209;-76
2022/11/17 11:27:54;;;;;;;23.33;12.33;;;15.80;94.80;;;;;;5071132;28;20194;-78
2022/11/17 11:30:22;;;;;;;19.40;11.00;;;15.80;94.80;;;;;;5064717;28;20186;-77
2022/11/17 11:33:02;;;;;;;24.27;12.27;;;15.80;94.60;;;;;;5063152;28;20199;-80
2022/11/17 11:36:03;;;;;;;22.50;12.10;;;15.80;94.50;;;;;;5058269;28;20665;-79
2022/11/17 11:38:52;;;;;;;25.03;12.97;;;15.80;94.40;;;;;;5052747;28;20673;-77
2022/11/17 11:41:34;;;;;;;25.63;12.53;;;15.80;94.20;;;;;;5061732;28;20195;-77
2022/11/17 11:44:19;;;;;;;26.92;14.73;;;15.80;94.10;;;;;;5065108;28;20912;-75
2022/11/17 11:46:55;;;;;;;28.10;14.83;;;15.80;94.20;;;;;;5066289;28;20210;-78
2022/11/17 11:49:32;;;;;;;25.73;13.77;;;15.70;94.10;;;;;;5058888;28;20240;-79
2022/11/17 11:52:02;;;;;;;32.70;15.67;;;15.70;94.20;;;;;;5063395;28;20194;-79
2022/11/17 11:54:35;;;;;;;31.53;15.40;;;15.60;94.00;;;;;;5060944;28;20218;-78
2022/11/17 11:57:13;;;;;;;33.67;15.37;;;15.50;94.00;;;;;;5060059;28;20686;-78
2022/11/17 11:59:49;;;;;;;30.97;14.13;;;15.50;94.00;;;;;;5059050;28;20225;-78
2022/11/17 12:02:27;;;;;;;30.73;14.70;;;15.40;93.70;;;;;;5063352;28;20190;-78
2022/11/17 12:05:12;;;;;;;33.27;16.10;;;15.30;93.60;;;;;;5066256;28;20225;-79
2022/11/17 12:07:46;;;;;;;29.67;14.87;;;15.30;93.80;;;;;;5060652;28;20654;-78
2022/11/17 12:10:20;;;;;;;32.33;15.97;;;15.20;93.80;;;;;;5065328;28;20197;-79
2022/11/17 12:12:51;;;;;;;33.30;14.80;;;15.20;93.90;;;;;;5067169;28;20200;-78
2022/11/17 12:15:36;;;;;;;32.30;16.20;;;15.20;94.00;;;;;;5069318;28;20186;-77
2022/11/17 12:18:11;;;;;;;27.23;15.33;;;15.20;94.00;;;;;;5059332;28;20891;-79
2022/11/17 12:20:57;;;;;;;25.43;13.50;;;15.10;94.00;;;;;;5065756;28;20194;-79
2022/11/17 12:23:56;;;;;;;26.88;13.57;;;15.00;93.50;;;;;;5062894;28;20436;-79
2022/11/17 12:26:27;;;;;;;21.77;12.70;;;15.00;93.20;;;;;;5067087;28;20252;-77
2022/11/17 12:29:44;;;;;;;22.57;13.37;;;15.00;93.30;;;;;;5061293;28;20191;-77
2022/11/17 12:32:51;;;;;;;25.30;13.40;;;15.00;93.30;;;;;;5025618;28;20194;-78
2022/11/17 12:35:30;;;;;;;26.83;14.50;;;15.00;93.30;;;;;;5059856;28;20648;-79
2022/11/17 12:38:36;;;;;;;26.77;14.17;;;15.00;93.20;;;;;;5064455;28;20206;-79
2022/11/17 12:41:05;;;;;;;26.27;14.03;;;14.90;93.20;;;;;;5064642;28;20825;-81
2022/11/17 12:43:33;;;;;;;22.90;13.43;;;14.90;93.20;;;;;;5063045;28;20195;-81
2022/11/17 12:46:19;;;;;;;26.67;13.63;;;15.00;93.30;;;;;;5066776;28;20206;-78
2022/11/17 12:48:57;;;;;;;24.67;12.60;;;15.00;93.40;;;;;;5066974;28;20186;-78
2022/11/17 12:51:33;;;;;;;24.53;12.73;;;15.00;93.40;;;;;;5062195;28;20251;-81
2022/11/17 12:54:11;;;;;;;23.83;12.70;;;15.00;93.40;;;;;;5061239;28;20256;-81
2022/11/17 12:56:56;;;;;;;26.97;13.67;;;15.00;93.40;;;;;;5062664;28;20195;-79
2022/11/17 12:59:40;;;;;;;23.93;13.20;;;14.90;93.30;;;;;;5065633;28;20666;-78
2022/11/17 13:02:24;;;;;;;22.37;11.27;;;14.90;93.30;;;;;;5062845;28;20194;-78
2022/11/17 13:04:57;;;;;;;20.63;12.57;;;15.00;93.40;;;;;;5066958;28;20660;-80
2022/11/17 13:07:27;;;;;;;20.20;11.23;;;15.00;93.30;;;;;;5061780;28;20203;-79
2022/11/17 13:09:57;;;;;;;22.00;11.67;;;15.00;93.20;;;;;;5063247;28;20682;-81
2022/11/17 13:12:27;;;;;;;27.10;12.43;;;15.10;93.10;;;;;;5065247;28;20195;-79
2022/11/17 13:14:56;;;;;;;20.17;11.53;;;15.10;93.10;;;;;;5065581;28;20643;-79
2022/11/17 13:17:30;;;;;;;19.00;10.77;;;15.20;93.00;;;;;;5067039;28;20493;-80
2022/11/17 13:20:01;;;;;;;20.53;11.37;;;15.20;93.00;;;;;;5061540;28;20214;-79
2022/11/17 13:22:30;;;;;;;20.10;9.73;;;15.20;92.90;;;;;;5061712;28;20195;-79
2022/11/17 13:25:19;;;;;;;20.97;10.77;;;15.20;92.90;;;;;;5060752;28;20286;-79
2022/11/17 13:27:47;;;;;;;20.60;10.67;;;15.30;92.80;;;;;;5067658;28;20205;-80
2022/11/17 13:30:25;;;;;;;17.53;9.83;;;15.30;92.40;;;;;;5063400;28;20202;-80